createdAt,value
2022-12-19T00:02:38.368Z,19.70
2022-12-19T00:05:40.723Z,19.70
2022-12-19T00:08:44.403Z,19.60
2022-12-19T00:11:47.260Z,19.30
2022-12-19T00:14:48.760Z,20.00
2022-12-19T00:17:50.568Z,20.00
2022-12-19T00:20:57.122Z,19.90
2022-12-19T00:23:58.817Z,19.60
2022-12-19T00:27:00.180Z,20.00
2022-12-19T00:30:04.247Z,19.80
2022-12-19T00:33:06.273Z,19.90
2022-12-19T00:36:11.758Z,19.80
2022-12-19T00:39:13.264Z,19.90
2022-12-19T00:42:14.671Z,19.90
2022-12-19T00:45:16.608Z,19.90
2022-12-19T00:48:18.654Z,20.00
2022-12-19T00:51:23.087Z,19.50
2022-12-19T00:54:24.763Z,19.90
2022-12-19T00:57:26.200Z,20.10
2022-12-19T01:00:27.591Z,19.50
2022-12-19T01:03:31.662Z,19.70
2022-12-19T01:06:33.395Z,20.00
2022-12-19T01:09:36.042Z,19.80
2022-12-19T01:12:52.198Z,19.90
2022-12-19T01:15:53.693Z,20.00
2022-12-19T01:18:55.512Z,20.00
2022-12-19T01:21:58.741Z,19.70
2022-12-19T01:25:00.393Z,19.90
2022-12-19T01:31:06.684Z,20.00
2022-12-19T01:34:11.651Z,19.60
2022-12-19T01:37:13.017Z,20.00
2022-12-19T01:40:14.783Z,19.70
2022-12-19T01:43:17.254Z,19.70
2022-12-19T01:46:24.607Z,19.70
2022-12-19T01:49:32.406Z,19.90
2022-12-19T01:55:36.885Z,19.30
2022-12-19T01:58:41.575Z,19.70
2022-12-19T02:01:51.061Z,19.80
2022-12-19T02:04:57.018Z,19.70
2022-12-19T02:11:00.532Z,19.80
2022-12-19T02:17:16.353Z,19.80
2022-12-19T02:20:49.095Z,19.80
2022-12-19T02:24:23.903Z,19.60
2022-12-19T02:27:53.888Z,19.60
2022-12-19T02:31:16.368Z,19.60
2022-12-19T02:34:28.854Z,19.90
2022-12-19T02:37:43.928Z,19.70
2022-12-19T02:40:50.125Z,20.00
2022-12-19T02:43:59.258Z,19.70
2022-12-19T02:47:06.329Z,19.70
2022-12-19T02:50:11.300Z,19.90
2022-12-19T02:53:14.705Z,19.70
2022-12-19T02:56:30.843Z,19.90
2022-12-19T02:59:46.386Z,20.00
2022-12-19T03:03:01.679Z,19.60
2022-12-19T03:06:11.849Z,19.80
2022-12-19T03:09:16.976Z,19.90
2022-12-19T03:12:23.285Z,19.80
2022-12-19T03:15:26.341Z,19.50
2022-12-19T03:18:30.704Z,19.90
2022-12-19T03:21:35.826Z,19.90
2022-12-19T03:24:37.315Z,19.60
2022-12-19T03:27:39.071Z,20.00
2022-12-19T03:30:42.525Z,19.60
2022-12-19T03:33:46.020Z,19.70
2022-12-19T03:36:53.824Z,20.00
2022-12-19T03:39:59.656Z,19.80
2022-12-19T03:43:12.625Z,20.10
2022-12-19T03:46:21.901Z,19.90
2022-12-19T03:49:23.994Z,20.00
2022-12-19T03:52:29.174Z,19.80
2022-12-19T03:55:38.472Z,20.00
2022-12-19T03:58:45.023Z,19.90
2022-12-19T04:01:47.185Z,19.90
2022-12-19T04:04:56.606Z,19.70
2022-12-19T04:08:04.143Z,19.70
2022-12-19T04:11:13.295Z,19.70
2022-12-19T04:14:19.417Z,19.90
2022-12-19T04:17:27.916Z,19.80
2022-12-19T04:20:30.788Z,19.90
2022-12-19T04:23:38.506Z,19.90
2022-12-19T04:26:44.459Z,20.20
2022-12-19T04:29:47.503Z,19.90
2022-12-19T04:32:49.978Z,19.90
2022-12-19T04:35:52.087Z,20.00
2022-12-19T04:38:53.506Z,19.80
2022-12-19T04:41:55.025Z,20.20
2022-12-19T04:44:57.665Z,20.10
2022-12-19T04:47:59.158Z,20.30
2022-12-19T04:51:01.061Z,20.10
2022-12-19T04:54:02.465Z,19.80
2022-12-19T04:57:04.165Z,19.60
2022-12-19T05:00:07.890Z,20.00
2022-12-19T05:03:09.339Z,20.10
2022-12-19T05:06:12.433Z,20.10
2022-12-19T05:09:13.876Z,19.80
2022-12-19T05:12:15.375Z,20.00
2022-12-19T05:15:16.684Z,20.00
2022-12-19T05:18:18.146Z,20.20
2022-12-19T05:21:20.482Z,19.70
2022-12-19T05:24:22.058Z,20.00
2022-12-19T05:27:23.456Z,19.60
2022-12-19T05:30:24.886Z,19.70
2022-12-19T05:36:32.645Z,19.60
2022-12-19T05:39:34.319Z,19.80
2022-12-19T05:42:35.650Z,20.20
2022-12-19T05:45:39.370Z,19.90
2022-12-19T05:51:43.263Z,20.00
2022-12-19T06:03:50.946Z,19.90
2022-12-19T06:06:53.058Z,20.20
2022-12-19T06:22:02.533Z,19.80
2022-12-19T06:25:04.909Z,20.00
2022-12-19T06:31:11.331Z,19.90
2022-12-19T06:37:38.984Z,19.90
2022-12-19T06:40:53.743Z,19.90
2022-12-19T06:43:58.218Z,19.80
2022-12-19T06:53:04.620Z,20.00
2022-12-19T06:56:07.573Z,20.00
2022-12-19T06:59:12.691Z,19.90
2022-12-19T07:02:25.098Z,19.90
2022-12-19T07:20:43.356Z,20.00
2022-12-19T07:23:47.045Z,20.10
2022-12-19T07:38:56.916Z,20.00
2022-12-19T07:54:19.149Z,20.10
2022-12-19T08:09:30.374Z,20.00
2022-12-19T08:12:32.992Z,20.00
2022-12-19T08:15:34.700Z,19.90
2022-12-19T08:18:37.086Z,20.00
2022-12-19T08:21:39.292Z,20.20
2022-12-19T08:24:41.269Z,20.40
2022-12-19T08:27:42.837Z,20.20
2022-12-19T08:30:45.589Z,20.10
2022-12-19T08:33:47.666Z,20.30
2022-12-19T08:36:49.343Z,20.10
2022-12-19T08:39:51.533Z,20.00
2022-12-19T08:42:52.949Z,20.40
2022-12-19T08:45:54.752Z,20.40
2022-12-19T08:48:56.445Z,20.10
2022-12-19T08:51:58.729Z,20.40
2022-12-19T08:55:00.948Z,20.30
2022-12-19T08:58:02.496Z,20.40
2022-12-19T09:01:08.123Z,20.50
2022-12-19T09:05:46.698Z,20.50
2022-12-19T09:07:31.073Z,20.20
2022-12-19T09:10:35.338Z,19.90
2022-12-19T09:13:38.277Z,20.90
2022-12-19T09:16:39.872Z,20.20
2022-12-19T09:19:44.458Z,20.60
2022-12-19T09:22:49.842Z,20.50
2022-12-19T09:25:52.013Z,20.10
2022-12-19T09:28:54.485Z,19.90
2022-12-19T09:31:57.136Z,20.50
2022-12-19T09:34:58.713Z,20.50
2022-12-19T09:38:00.759Z,20.70
2022-12-19T09:41:20.561Z,20.50
2022-12-19T09:44:36.076Z,20.80
2022-12-19T09:47:42.183Z,20.40
2022-12-19T09:50:51.138Z,20.60
2022-12-19T09:54:01.212Z,20.20
2022-12-19T09:57:10.146Z,20.40
2022-12-19T10:00:15.173Z,20.10
2022-12-19T10:03:24.205Z,20.50
2022-12-19T10:13:23.273Z,20.70
2022-12-19T10:16:36.172Z,20.40
2022-12-19T10:19:48.762Z,20.50
2022-12-19T10:23:01.644Z,20.40
2022-12-19T10:26:10.508Z,20.60
2022-12-19T10:29:34.198Z,20.50
2022-12-19T10:32:42.477Z,20.60
2022-12-19T10:35:45.916Z,20.50
2022-12-19T10:38:56.372Z,20.50
2022-12-19T10:42:15.408Z,20.10
2022-12-19T10:45:19.342Z,20.60
2022-12-19T10:48:27.792Z,20.60
2022-12-19T10:51:32.824Z,20.80
2022-12-19T10:54:42.966Z,20.70
2022-12-19T10:57:44.539Z,20.70
2022-12-19T11:01:01.733Z,20.60
2022-12-19T11:04:20.885Z,20.50
2022-12-19T11:07:22.927Z,20.60
2022-12-19T11:12:20.527Z,20.50
2022-12-19T11:23:52.361Z,20.60
2022-12-19T11:29:30.270Z,20.40
2022-12-19T11:30:34.340Z,20.40
2022-12-19T11:30:43.366Z,20.40
2022-12-19T11:34:49.689Z,20.60
2022-12-19T11:37:55.872Z,20.90
2022-12-19T11:40:59.997Z,20.90
2022-12-19T11:44:07.914Z,20.50
2022-12-19T11:47:19.288Z,20.90
2022-12-19T11:50:25.982Z,20.40
2022-12-19T11:53:29.957Z,20.60
2022-12-19T11:56:35.564Z,20.80
2022-12-19T11:59:39.706Z,20.70
2022-12-19T12:03:04.130Z,20.60
2022-12-19T12:06:12.371Z,20.70
2022-12-19T12:13:57.743Z,20.80
2022-12-19T12:21:32.509Z,20.80
2022-12-19T12:31:03.927Z,20.70
2022-12-19T12:31:19.171Z,20.50
2022-12-19T12:31:32.656Z,20.50
2022-12-19T12:31:41.324Z,20.80
2022-12-19T12:31:47.732Z,20.70
2022-12-19T12:35:52.362Z,20.80
2022-12-19T12:41:09.108Z,21.00
2022-12-19T12:44:11.467Z,20.90
2022-12-19T12:47:18.303Z,20.60
2022-12-19T12:50:23.404Z,21.20
2022-12-19T12:53:29.098Z,20.70
2022-12-19T12:56:32.040Z,20.80
2022-12-19T12:59:33.851Z,21.10
2022-12-19T13:02:35.745Z,21.00
2022-12-19T13:05:52.229Z,20.70
2022-12-19T13:09:01.624Z,20.80
2022-12-19T13:12:32.252Z,20.90
2022-12-19T13:15:40.742Z,20.80
2022-12-19T13:19:18.412Z,20.80
2022-12-19T13:22:38.151Z,20.80
2022-12-19T13:25:51.117Z,21.10
2022-12-19T13:28:53.126Z,21.20
2022-12-19T13:32:08.706Z,20.90
2022-12-19T13:36:28.555Z,20.90
2022-12-19T13:39:56.268Z,21.10
2022-12-19T13:42:33.754Z,20.70
2022-12-19T13:45:38.029Z,21.10
2022-12-19T13:48:45.664Z,21.00
2022-12-19T13:51:49.600Z,20.90
2022-12-19T13:54:55.253Z,21.10
2022-12-19T13:57:57.228Z,21.10
2022-12-19T14:01:04.052Z,21.10
2022-12-19T14:04:08.629Z,21.00
2022-12-19T14:07:36.123Z,21.30
2022-12-19T14:11:32.381Z,20.90
2022-12-19T14:14:27.883Z,21.10
2022-12-19T14:17:30.563Z,21.10
2022-12-19T14:22:01.820Z,21.00
2022-12-19T14:24:07.808Z,21.00
2022-12-19T14:28:17.826Z,21.20
2022-12-19T14:30:40.471Z,21.10
2022-12-19T14:39:25.776Z,21.20
2022-12-19T14:43:14.869Z,21.20
2022-12-19T14:54:00.456Z,21.10
2022-12-19T14:54:03.491Z,21.40
2022-12-19T14:54:44.051Z,21.40
2022-12-19T14:56:28.132Z,21.40
2022-12-19T14:59:35.656Z,21.60
2022-12-19T15:02:38.610Z,21.30
2022-12-19T15:05:40.390Z,21.60
2022-12-19T15:09:02.441Z,21.30
2022-12-19T15:14:47.271Z,21.20
2022-12-19T15:15:51.967Z,21.00
2022-12-19T15:18:56.472Z,21.00
2022-12-19T15:21:57.953Z,21.70
2022-12-19T15:24:59.563Z,21.40
2022-12-19T15:28:01.502Z,21.60
2022-12-19T15:31:09.975Z,21.20
2022-12-19T15:34:34.902Z,21.20
2022-12-19T15:37:38.525Z,21.20
2022-12-19T15:40:41.913Z,21.40
2022-12-19T15:47:15.027Z,21.20
2022-12-19T15:50:18.614Z,21.30
2022-12-19T15:53:39.892Z,21.70
2022-12-19T15:56:46.356Z,21.60
2022-12-19T15:59:48.828Z,21.80
2022-12-19T16:06:13.629Z,21.20
2022-12-19T16:09:20.605Z,21.30
2022-12-19T16:12:27.393Z,21.70
2022-12-19T16:15:31.878Z,21.70
2022-12-19T16:18:33.398Z,21.60
2022-12-19T16:21:34.890Z,21.60
2022-12-19T16:24:36.344Z,21.40
2022-12-19T16:27:37.782Z,21.70
2022-12-19T16:30:42.611Z,21.50
2022-12-19T16:33:44.013Z,21.60
2022-12-19T16:36:45.524Z,21.50
2022-12-19T16:39:46.938Z,21.40
2022-12-19T16:42:49.179Z,22.40
2022-12-19T16:45:51.302Z,21.40
2022-12-19T16:48:52.690Z,21.60
2022-12-19T16:51:54.049Z,21.70
2022-12-19T16:54:55.442Z,21.20
2022-12-19T16:57:58.121Z,21.40
2022-12-19T17:01:00.228Z,21.30
2022-12-19T17:04:01.998Z,21.20
2022-12-19T17:07:05.157Z,21.60
2022-12-19T17:10:07.130Z,21.70
2022-12-19T17:13:12.574Z,21.20
2022-12-19T17:16:14.803Z,21.50
2022-12-19T17:19:21.314Z,21.40
2022-12-19T17:22:22.839Z,21.30
2022-12-19T17:25:26.507Z,21.30
2022-12-19T17:28:28.753Z,21.50
2022-12-19T17:31:37.012Z,21.50
2022-12-19T17:34:38.516Z,21.50
2022-12-19T17:37:40.982Z,21.50
2022-12-19T17:40:44.016Z,20.90
2022-12-19T17:43:45.648Z,21.70
2022-12-19T17:46:47.760Z,21.40
2022-12-19T17:49:49.430Z,21.30
2022-12-19T17:52:51.688Z,21.30
2022-12-19T17:55:53.180Z,21.00
2022-12-19T17:58:55.563Z,21.10
2022-12-19T18:01:58.046Z,21.00
2022-12-19T18:05:00.589Z,21.20
2022-12-19T18:08:02.793Z,21.20
2022-12-19T18:11:07.016Z,21.40
2022-12-19T18:14:08.597Z,21.10
2022-12-19T18:17:11.934Z,20.70
2022-12-19T18:20:31.227Z,21.20
2022-12-19T18:23:33.601Z,20.90
2022-12-19T18:26:34.974Z,21.50
2022-12-19T18:29:36.408Z,21.30
2022-12-19T18:32:38.254Z,21.20
2022-12-19T18:35:41.681Z,21.20
2022-12-19T18:38:43.084Z,21.20
2022-12-19T18:41:44.579Z,21.30
2022-12-19T18:44:46.280Z,21.50
2022-12-19T18:47:54.989Z,21.30
2022-12-19T18:50:57.603Z,20.90
2022-12-19T18:53:59.384Z,20.80
2022-12-19T18:57:00.757Z,21.10
2022-12-19T19:00:02.811Z,21.30
2022-12-19T19:03:10.655Z,21.30
2022-12-19T19:06:17.940Z,20.90
2022-12-19T19:09:20.601Z,20.90
2022-12-19T19:12:35.012Z,21.10
2022-12-19T19:15:42.150Z,21.10
2022-12-19T19:18:46.471Z,21.20
2022-12-19T19:21:48.065Z,21.10
2022-12-19T19:24:49.773Z,21.10
2022-12-19T19:27:51.284Z,21.20
2022-12-19T19:30:52.908Z,21.10
2022-12-19T19:34:00.046Z,20.70
2022-12-19T19:37:04.145Z,20.90
2022-12-19T19:40:07.261Z,21.10
2022-12-19T19:43:08.810Z,21.00
2022-12-19T19:46:10.496Z,20.70
2022-12-19T19:49:12.627Z,21.20
2022-12-19T19:52:14.551Z,21.00
2022-12-19T19:55:16.095Z,21.20
2022-12-19T19:58:17.487Z,21.20
2022-12-19T20:01:19.008Z,21.10
2022-12-19T20:04:21.151Z,21.00
2022-12-19T20:10:24.512Z,20.70
2022-12-19T20:13:28.474Z,21.00
2022-12-19T20:16:30.165Z,20.60
2022-12-19T20:19:32.238Z,21.00
2022-12-19T20:22:33.655Z,20.60
2022-12-19T20:25:38.936Z,20.90
2022-12-19T20:28:47.809Z,21.10
2022-12-19T20:31:50.315Z,21.10
2022-12-19T20:34:52.382Z,20.90
2022-12-19T20:37:53.792Z,20.90
2022-12-19T20:40:55.136Z,21.10
2022-12-19T20:43:56.999Z,20.70
2022-12-19T20:50:01.656Z,20.40
2022-12-19T20:53:03.035Z,21.00
2022-12-19T20:56:06.753Z,20.50
2022-12-19T21:05:14.033Z,20.60
2022-12-19T21:11:17.905Z,21.00
2022-12-19T21:14:19.248Z,20.60
2022-12-19T21:20:28.188Z,21.00
2022-12-19T21:23:34.233Z,20.90
2022-12-19T21:26:35.738Z,20.80
2022-12-19T21:29:36.949Z,20.60
2022-12-19T21:32:38.418Z,20.90
2022-12-19T21:35:40.336Z,20.80
2022-12-19T21:38:41.746Z,20.80
2022-12-19T21:44:44.984Z,21.00
2022-12-19T21:47:46.478Z,20.60
2022-12-19T21:50:55.164Z,20.70
2022-12-19T21:53:59.624Z,21.00
2022-12-19T21:57:01.163Z,20.70
2022-12-19T22:00:03.163Z,20.80
2022-12-19T22:06:27.394Z,20.80
2022-12-19T22:09:29.973Z,20.70
2022-12-19T22:12:31.373Z,20.70
2022-12-19T22:15:35.203Z,20.70
2022-12-19T22:18:37.027Z,20.40
2022-12-19T22:21:39.631Z,20.80
2022-12-19T22:24:41.036Z,20.80
2022-12-19T22:27:42.337Z,20.70
2022-12-19T22:30:43.697Z,20.60
2022-12-19T22:33:45.221Z,20.60
2022-12-19T22:36:48.268Z,20.60
2022-12-19T22:39:49.765Z,20.60
2022-12-19T22:42:51.187Z,20.90
2022-12-19T22:48:56.800Z,20.60
2022-12-19T22:51:58.773Z,20.90
2022-12-19T22:58:02.063Z,20.70
2022-12-19T23:01:04.089Z,20.90
2022-12-19T23:04:07.293Z,20.70
2022-12-19T23:07:09.394Z,20.70
2022-12-19T23:10:11.645Z,20.80
2022-12-19T23:13:13.543Z,20.80
2022-12-19T23:16:15.454Z,20.80
2022-12-19T23:19:17.730Z,20.60
2022-12-19T23:22:19.969Z,20.50
2022-12-19T23:25:21.574Z,20.50
2022-12-19T23:28:23.086Z,20.80
2022-12-19T23:31:25.429Z,20.80
2022-12-19T23:37:29.224Z,20.60
2022-12-19T23:43:32.816Z,21.20
2022-12-19T23:49:36.335Z,20.50
2022-12-19T23:52:38.390Z,20.70
2022-12-19T23:55:39.785Z,20.60
2022-12-19T23:58:41.744Z,20.80
